sensor_id;sensor_type;location;lat;lon;timestamp;P1;durP1;ratioP1;P2;durP2;ratioP2
16665;SDS011;8446;50.998;6.250;2023-03-01T00:01:00;7.82;;;5.13;;
16665;SDS011;8446;50.998;6.250;2023-03-01T00:03:27;6.03;;;4.55;;
16665;SDS011;8446;50.998;6.250;2023-03-01T00:05:54;6.45;;;4.68;;
16665;SDS011;8446;50.998;6.250;2023-03-01T00:08:21;7.53;;;4.93;;
16665;SDS011;8446;50.998;6.250;2023-03-01T00:10:49;6.07;;;4.75;;
16665;SDS011;8446;50.998;6.250;2023-03-01T00:13:16;7.00;;;4.60;;
16665;SDS011;8446;50.998;6.250;2023-03-01T00:15:43;6.20;;;4.68;;
16665;SDS011;8446;50.998;6.250;2023-03-01T00:18:11;5.43;;;4.78;;
16665;SDS011;8446;50.998;6.250;2023-03-01T00:20:38;7.60;;;4.90;;
16665;SDS011;8446;50.998;6.250;2023-03-01T00:23:05;8.93;;;4.72;;
16665;SDS011;8446;50.998;6.250;2023-03-01T00:25:32;7.50;;;4.15;;
16665;SDS011;8446;50.998;6.250;2023-03-01T00:28:00;5.35;;;3.90;;
16665;SDS011;8446;50.998;6.250;2023-03-01T00:30:27;7.65;;;5.20;;
16665;SDS011;8446;50.998;6.250;2023-03-01T00:32:54;6.53;;;4.75;;
16665;SDS011;8446;50.998;6.250;2023-03-01T00:35:22;8.43;;;5.03;;
16665;SDS011;8446;50.998;6.250;2023-03-01T00:37:49;10.13;;;4.50;;
16665;SDS011;8446;50.998;6.250;2023-03-01T00:40:23;7.43;;;4.90;;
16665;SDS011;8446;50.998;6.250;2023-03-01T00:42:50;7.25;;;4.78;;
16665;SDS011;8446;50.998;6.250;2023-03-01T00:45:17;7.60;;;4.78;;
16665;SDS011;8446;50.998;6.250;2023-03-01T00:47:44;8.82;;;5.30;;
16665;SDS011;8446;50.998;6.250;2023-03-01T00:50:12;10.07;;;5.40;;
16665;SDS011;8446;50.998;6.250;2023-03-01T00:52:40;7.38;;;5.20;;
16665;SDS011;8446;50.998;6.250;2023-03-01T00:55:07;7.22;;;5.38;;
16665;SDS011;8446;50.998;6.250;2023-03-01T00:57:35;7.45;;;5.10;;
16665;SDS011;8446;50.998;6.250;2023-03-01T01:00:02;5.95;;;4.85;;
16665;SDS011;8446;50.998;6.250;2023-03-01T01:02:31;6.95;;;5.05;;
16665;SDS011;8446;50.998;6.250;2023-03-01T01:04:59;8.48;;;5.80;;
16665;SDS011;8446;50.998;6.250;2023-03-01T01:07:26;7.43;;;5.00;;
16665;SDS011;8446;50.998;6.250;2023-03-01T01:09:55;8.27;;;5.30;;
16665;SDS011;8446;50.998;6.250;2023-03-01T01:12:22;9.07;;;5.45;;
16665;SDS011;8446;50.998;6.250;2023-03-01T01:14:49;9.90;;;5.78;;
16665;SDS011;8446;50.998;6.250;2023-03-01T01:17:16;7.93;;;5.03;;
16665;SDS011;8446;50.998;6.250;2023-03-01T01:19:43;8.38;;;5.80;;
16665;SDS011;8446;50.998;6.250;2023-03-01T01:22:10;10.10;;;5.95;;
16665;SDS011;8446;50.998;6.250;2023-03-01T01:24:37;7.00;;;5.15;;
16665;SDS011;8446;50.998;6.250;2023-03-01T01:27:06;10.40;;;5.22;;
16665;SDS011;8446;50.998;6.250;2023-03-01T01:29:33;6.93;;;4.85;;
16665;SDS011;8446;50.998;6.250;2023-03-01T01:32:00;9.07;;;5.88;;
16665;SDS011;8446;50.998;6.250;2023-03-01T01:34:27;6.90;;;5.05;;
16665;SDS011;8446;50.998;6.250;2023-03-01T01:36:54;9.25;;;5.40;;
16665;SDS011;8446;50.998;6.250;2023-03-01T01:39:22;8.85;;;5.65;;
16665;SDS011;8446;50.998;6.250;2023-03-01T01:41:49;11.68;;;5.82;;
16665;SDS011;8446;50.998;6.250;2023-03-01T01:44:18;11.57;;;5.00;;
16665;SDS011;8446;50.998;6.250;2023-03-01T01:46:47;10.52;;;5.45;;
16665;SDS011;8446;50.998;6.250;2023-03-01T01:49:20;11.70;;;6.65;;
16665;SDS011;8446;50.998;6.250;2023-03-01T01:51:49;10.70;;;6.35;;
16665;SDS011;8446;50.998;6.250;2023-03-01T01:54:18;8.60;;;5.00;;
16665;SDS011;8446;50.998;6.250;2023-03-01T01:56:47;9.20;;;5.45;;
16665;SDS011;8446;50.998;6.250;2023-03-01T01:59:15;6.13;;;4.63;;
16665;SDS011;8446;50.998;6.250;2023-03-01T02:01:44;7.05;;;4.70;;
16665;SDS011;8446;50.998;6.250;2023-03-01T02:04:11;8.52;;;6.00;;
16665;SDS011;8446;50.998;6.250;2023-03-01T02:06:39;11.35;;;5.43;;
16665;SDS011;8446;50.998;6.250;2023-03-01T02:09:10;8.75;;;5.28;;
16665;SDS011;8446;50.998;6.250;2023-03-01T02:11:39;7.43;;;4.70;;
16665;SDS011;8446;50.998;6.250;2023-03-01T02:14:06;8.90;;;5.50;;
16665;SDS011;8446;50.998;6.250;2023-03-01T02:16:33;9.38;;;5.88;;
16665;SDS011;8446;50.998;6.250;2023-03-01T02:19:02;9.57;;;5.78;;
16665;SDS011;8446;50.998;6.250;2023-03-01T02:21:34;9.52;;;5.40;;
16665;SDS011;8446;50.998;6.250;2023-03-01T02:24:05;8.68;;;4.90;;
16665;SDS011;8446;50.998;6.250;2023-03-01T02:26:36;13.18;;;6.07;;
16665;SDS011;8446;50.998;6.250;2023-03-01T02:29:08;10.10;;;5.55;;
16665;SDS011;8446;50.998;6.250;2023-03-01T02:31:35;10.02;;;5.88;;
16665;SDS011;8446;50.998;6.250;2023-03-01T02:34:09;8.65;;;5.20;;
16665;SDS011;8446;50.998;6.250;2023-03-01T02:36:37;8.90;;;5.90;;
16665;SDS011;8446;50.998;6.250;2023-03-01T02:39:06;7.28;;;4.85;;
16665;SDS011;8446;50.998;6.250;2023-03-01T02:41:39;6.93;;;4.80;;
16665;SDS011;8446;50.998;6.250;2023-03-01T02:44:09;5.68;;;4.85;;
16665;SDS011;8446;50.998;6.250;2023-03-01T02:46:41;8.30;;;5.43;;
16665;SDS011;8446;50.998;6.250;2023-03-01T02:49:19;8.75;;;6.15;;
16665;SDS011;8446;50.998;6.250;2023-03-01T02:51:50;9.25;;;6.13;;
16665;SDS011;8446;50.998;6.250;2023-03-01T02:54:21;9.23;;;5.32;;
16665;SDS011;8446;50.998;6.250;2023-03-01T02:56:51;8.93;;;5.45;;
16665;SDS011;8446;50.998;6.250;2023-03-01T02:59:20;10.80;;;6.30;;
16665;SDS011;8446;50.998;6.250;2023-03-01T03:01:48;8.02;;;5.88;;
16665;SDS011;8446;50.998;6.250;2023-03-01T03:04:16;9.65;;;6.07;;
16665;SDS011;8446;50.998;6.250;2023-03-01T03:06:46;8.38;;;6.10;;
16665;SDS011;8446;50.998;6.250;2023-03-01T03:09:13;9.50;;;6.75;;
16665;SDS011;8446;50.998;6.250;2023-03-01T03:11:41;9.80;;;6.47;;
16665;SDS011;8446;50.998;6.250;2023-03-01T03:14:08;7.95;;;5.97;;
16665;SDS011;8446;50.998;6.250;2023-03-01T03:16:40;11.75;;;5.93;;
16665;SDS011;8446;50.998;6.250;2023-03-01T03:19:07;10.23;;;6.50;;
16665;SDS011;8446;50.998;6.250;2023-03-01T03:21:34;13.70;;;6.45;;
16665;SDS011;8446;50.998;6.250;2023-03-01T03:24:01;8.65;;;5.65;;
16665;SDS011;8446;50.998;6.250;2023-03-01T03:26:29;11.45;;;6.43;;
16665;SDS011;8446;50.998;6.250;2023-03-01T03:28:56;9.02;;;6.60;;
16665;SDS011;8446;50.998;6.250;2023-03-01T03:31:23;9.80;;;5.68;;
16665;SDS011;8446;50.998;6.250;2023-03-01T03:33:52;9.13;;;5.78;;
16665;SDS011;8446;50.998;6.250;2023-03-01T03:36:20;8.70;;;5.95;;
16665;SDS011;8446;50.998;6.250;2023-03-01T03:38:47;9.77;;;6.22;;
16665;SDS011;8446;50.998;6.250;2023-03-01T03:41:15;12.82;;;6.25;;
16665;SDS011;8446;50.998;6.250;2023-03-01T03:43:42;10.68;;;5.97;;
16665;SDS011;8446;50.998;6.250;2023-03-01T03:46:10;11.82;;;6.78;;
16665;SDS011;8446;50.998;6.250;2023-03-01T03:48:38;9.55;;;5.78;;
16665;SDS011;8446;50.998;6.250;2023-03-01T03:51:07;11.48;;;6.93;;
16665;SDS011;8446;50.998;6.250;2023-03-01T03:53:36;9.43;;;5.97;;
16665;SDS011;8446;50.998;6.250;2023-03-01T03:56:03;8.63;;;5.82;;
16665;SDS011;8446;50.998;6.250;2023-03-01T03:58:30;15.35;;;7.28;;
16665;SDS011;8446;50.998;6.250;2023-03-01T04:00:58;8.88;;;6.32;;
16665;SDS011;8446;50.998;6.250;2023-03-01T04:03:26;11.68;;;6.82;;
16665;SDS011;8446;50.998;6.250;2023-03-01T04:05:53;10.88;;;6.65;;
16665;SDS011;8446;50.998;6.250;2023-03-01T04:08:22;7.95;;;5.50;;
16665;SDS011;8446;50.998;6.250;2023-03-01T04:10:50;10.52;;;5.82;;
16665;SDS011;8446;50.998;6.250;2023-03-01T04:13:19;11.90;;;5.53;;
16665;SDS011;8446;50.998;6.250;2023-03-01T04:15:48;11.68;;;6.70;;
16665;SDS011;8446;50.998;6.250;2023-03-01T04:18:16;11.27;;;6.60;;
16665;SDS011;8446;50.998;6.250;2023-03-01T04:20:44;9.80;;;5.93;;
16665;SDS011;8446;50.998;6.250;2023-03-01T04:23:12;8.02;;;5.63;;
16665;SDS011;8446;50.998;6.250;2023-03-01T04:25:44;7.43;;;6.03;;
16665;SDS011;8446;50.998;6.250;2023-03-01T04:28:14;9.77;;;6.82;;
16665;SDS011;8446;50.998;6.250;2023-03-01T04:30:42;10.00;;;6.25;;
16665;SDS011;8446;50.998;6.250;2023-03-01T04:33:09;11.57;;;6.75;;
16665;SDS011;8446;50.998;6.250;2023-03-01T04:35:36;10.10;;;6.15;;
16665;SDS011;8446;50.998;6.250;2023-03-01T04:38:05;8.60;;;4.97;;
16665;SDS011;8446;50.998;6.250;2023-03-01T04:40:32;8.75;;;6.78;;
16665;SDS011;8446;50.998;6.250;2023-03-01T04:43:02;10.30;;;6.35;;
16665;SDS011;8446;50.998;6.250;2023-03-01T04:45:30;8.65;;;6.07;;
16665;SDS011;8446;50.998;6.250;2023-03-01T04:47:59;10.85;;;6.65;;
16665;SDS011;8446;50.998;6.250;2023-03-01T04:50:26;10.30;;;5.78;;
16665;SDS011;8446;50.998;6.250;2023-03-01T04:52:53;8.82;;;6.10;;
16665;SDS011;8446;50.998;6.250;2023-03-01T04:55:23;8.73;;;5.85;;
16665;SDS011;8446;50.998;6.250;2023-03-01T04:57:50;9.88;;;6.45;;
16665;SDS011;8446;50.998;6.250;2023-03-01T05:00:19;10.85;;;7.35;;
16665;SDS011;8446;50.998;6.250;2023-03-01T05:02:47;7.85;;;6.85;;
16665;SDS011;8446;50.998;6.250;2023-03-01T05:05:18;11.40;;;6.63;;
16665;SDS011;8446;50.998;6.250;2023-03-01T05:07:45;13.05;;;6.97;;
16665;SDS011;8446;50.998;6.250;2023-03-01T05:10:12;12.55;;;8.10;;
16665;SDS011;8446;50.998;6.250;2023-03-01T05:12:39;12.55;;;7.07;;
16665;SDS011;8446;50.998;6.250;2023-03-01T05:15:06;8.73;;;7.03;;
16665;SDS011;8446;50.998;6.250;2023-03-01T05:17:35;10.30;;;7.00;;
16665;SDS011;8446;50.998;6.250;2023-03-01T05:20:02;13.80;;;6.85;;
16665;SDS011;8446;50.998;6.250;2023-03-01T05:22:33;12.52;;;7.60;;
16665;SDS011;8446;50.998;6.250;2023-03-01T05:25:00;8.73;;;6.30;;
16665;SDS011;8446;50.998;6.250;2023-03-01T05:27:27;12.30;;;7.38;;
16665;SDS011;8446;50.998;6.250;2023-03-01T05:29:54;15.48;;;6.97;;
16665;SDS011;8446;50.998;6.250;2023-03-01T05:32:21;10.85;;;6.47;;
16665;SDS011;8446;50.998;6.250;2023-03-01T05:34:50;8.45;;;6.45;;
16665;SDS011;8446;50.998;6.250;2023-03-01T05:37:20;12.70;;;6.50;;
16665;SDS011;8446;50.998;6.250;2023-03-01T05:39:47;11.18;;;6.10;;
16665;SDS011;8446;50.998;6.250;2023-03-01T05:42:15;10.07;;;6.57;;
16665;SDS011;8446;50.998;6.250;2023-03-01T05:44:43;11.07;;;7.18;;
16665;SDS011;8446;50.998;6.250;2023-03-01T05:47:10;8.95;;;6.88;;
16665;SDS011;8446;50.998;6.250;2023-03-01T05:49:37;13.13;;;7.22;;
16665;SDS011;8446;50.998;6.250;2023-03-01T05:52:06;10.27;;;5.88;;
16665;SDS011;8446;50.998;6.250;2023-03-01T05:54:33;14.55;;;6.80;;
16665;SDS011;8446;50.998;6.250;2023-03-01T05:57:00;10.82;;;4.82;;
16665;SDS011;8446;50.998;6.250;2023-03-01T05:59:27;11.93;;;7.32;;
16665;SDS011;8446;50.998;6.250;2023-03-01T06:01:55;11.10;;;6.85;;
16665;SDS011;8446;50.998;6.250;2023-03-01T06:04:22;12.80;;;7.63;;
16665;SDS011;8446;50.998;6.250;2023-03-01T06:06:49;13.23;;;6.90;;
16665;SDS011;8446;50.998;6.250;2023-03-01T06:09:18;13.13;;;7.80;;
16665;SDS011;8446;50.998;6.250;2023-03-01T06:11:45;11.20;;;6.70;;
16665;SDS011;8446;50.998;6.250;2023-03-01T06:14:12;11.95;;;7.20;;
16665;SDS011;8446;50.998;6.250;2023-03-01T06:16:39;12.15;;;7.07;;
16665;SDS011;8446;50.998;6.250;2023-03-01T06:19:06;12.23;;;7.05;;
16665;SDS011;8446;50.998;6.250;2023-03-01T06:21:34;10.15;;;6.70;;
16665;SDS011;8446;50.998;6.250;2023-03-01T06:24:01;13.80;;;7.53;;
16665;SDS011;8446;50.998;6.250;2023-03-01T06:26:29;9.93;;;6.28;;
16665;SDS011;8446;50.998;6.250;2023-03-01T06:28:56;13.30;;;6.78;;
16665;SDS011;8446;50.998;6.250;2023-03-01T06:31:23;12.85;;;7.78;;
16665;SDS011;8446;50.998;6.250;2023-03-01T06:33:50;9.63;;;6.40;;
16665;SDS011;8446;50.998;6.250;2023-03-01T06:36:17;12.00;;;7.50;;
16665;SDS011;8446;50.998;6.250;2023-03-01T06:38:46;9.60;;;6.88;;
16665;SDS011;8446;50.998;6.250;2023-03-01T06:41:13;13.15;;;7.00;;
16665;SDS011;8446;50.998;6.250;2023-03-01T06:43:41;13.90;;;7.35;;
16665;SDS011;8446;50.998;6.250;2023-03-01T06:46:08;8.20;;;6.03;;
16665;SDS011;8446;50.998;6.250;2023-03-01T06:48:35;8.45;;;6.40;;
16665;SDS011;8446;50.998;6.250;2023-03-01T06:51:03;12.55;;;7.05;;
16665;SDS011;8446;50.998;6.250;2023-03-01T06:53:30;12.70;;;7.22;;
16665;SDS011;8446;50.998;6.250;2023-03-01T06:55:57;9.25;;;7.00;;
16665;SDS011;8446;50.998;6.250;2023-03-01T06:58:25;9.55;;;6.80;;
16665;SDS011;8446;50.998;6.250;2023-03-01T07:00:53;10.55;;;6.35;;
16665;SDS011;8446;50.998;6.250;2023-03-01T07:03:20;11.65;;;7.30;;
16665;SDS011;8446;50.998;6.250;2023-03-01T07:05:48;12.18;;;7.32;;
16665;SDS011;8446;50.998;6.250;2023-03-01T07:08:17;18.75;;;7.15;;
16665;SDS011;8446;50.998;6.250;2023-03-01T07:10:44;14.70;;;8.27;;
16665;SDS011;8446;50.998;6.250;2023-03-01T07:13:11;13.82;;;8.68;;
16665;SDS011;8446;50.998;6.250;2023-03-01T07:15:39;16.02;;;7.78;;
16665;SDS011;8446;50.998;6.250;2023-03-01T07:18:09;11.48;;;7.68;;
16665;SDS011;8446;50.998;6.250;2023-03-01T07:20:36;11.27;;;8.00;;
16665;SDS011;8446;50.998;6.250;2023-03-01T07:23:04;13.90;;;7.60;;
16665;SDS011;8446;50.998;6.250;2023-03-01T07:25:32;13.77;;;7.28;;
16665;SDS011;8446;50.998;6.250;2023-03-01T07:28:00;18.65;;;8.50;;
16665;SDS011;8446;50.998;6.250;2023-03-01T07:30:27;17.42;;;7.80;;
16665;SDS011;8446;50.998;6.250;2023-03-01T07:32:54;13.77;;;9.07;;
16665;SDS011;8446;50.998;6.250;2023-03-01T07:35:23;15.68;;;7.72;;
16665;SDS011;8446;50.998;6.250;2023-03-01T07:37:51;13.10;;;7.72;;
16665;SDS011;8446;50.998;6.250;2023-03-01T07:40:18;15.70;;;8.02;;
16665;SDS011;8446;50.998;6.250;2023-03-01T07:42:45;12.15;;;8.00;;
16665;SDS011;8446;50.998;6.250;2023-03-01T07:45:12;12.30;;;8.20;;
16665;SDS011;8446;50.998;6.250;2023-03-01T07:47:39;11.38;;;7.88;;
16665;SDS011;8446;50.998;6.250;2023-03-01T07:50:07;10.88;;;7.50;;
16665;SDS011;8446;50.998;6.250;2023-03-01T07:52:36;14.10;;;8.20;;
16665;SDS011;8446;50.998;6.250;2023-03-01T07:55:03;13.57;;;7.57;;
16665;SDS011;8446;50.998;6.250;2023-03-01T07:57:30;10.90;;;7.57;;
16665;SDS011;8446;50.998;6.250;2023-03-01T07:59:57;10.32;;;7.30;;
16665;SDS011;8446;50.998;6.250;2023-03-01T08:02:25;15.27;;;8.68;;
16665;SDS011;8446;50.998;6.250;2023-03-01T08:04:52;12.90;;;8.38;;
16665;SDS011;8446;50.998;6.250;2023-03-01T08:07:19;12.23;;;8.25;;
16665;SDS011;8446;50.998;6.250;2023-03-01T08:09:47;16.33;;;7.75;;
16665;SDS011;8446;50.998;6.250;2023-03-01T08:12:14;16.02;;;7.80;;
16665;SDS011;8446;50.998;6.250;2023-03-01T08:14:42;15.88;;;8.93;;
16665;SDS011;8446;50.998;6.250;2023-03-01T08:17:09;12.90;;;8.07;;
16665;SDS011;8446;50.998;6.250;2023-03-01T08:19:36;17.13;;;7.95;;
16665;SDS011;8446;50.998;6.250;2023-03-01T08:22:03;12.10;;;7.95;;
16665;SDS011;8446;50.998;6.250;2023-03-01T08:24:30;16.55;;;8.95;;
16665;SDS011;8446;50.998;6.250;2023-03-01T08:26:59;13.30;;;7.57;;
16665;SDS011;8446;50.998;6.250;2023-03-01T08:29:27;10.55;;;7.10;;
16665;SDS011;8446;50.998;6.250;2023-03-01T08:31:54;11.15;;;7.72;;
16665;SDS011;8446;50.998;6.250;2023-03-01T08:34:22;16.50;;;7.93;;
16665;SDS011;8446;50.998;6.250;2023-03-01T08:36:49;12.50;;;7.55;;
16665;SDS011;8446;50.998;6.250;2023-03-01T08:39:17;17.10;;;8.68;;
16665;SDS011;8446;50.998;6.250;2023-03-01T08:41:45;13.85;;;8.20;;
16665;SDS011;8446;50.998;6.250;2023-03-01T08:44:14;12.35;;;7.50;;
16665;SDS011;8446;50.998;6.250;2023-03-01T08:46:43;12.32;;;8.10;;
16665;SDS011;8446;50.998;6.250;2023-03-01T08:49:11;15.35;;;7.88;;
16665;SDS011;8446;50.998;6.250;2023-03-01T08:51:38;9.30;;;7.28;;
16665;SDS011;8446;50.998;6.250;2023-03-01T08:54:06;17.02;;;8.50;;
16665;SDS011;8446;50.998;6.250;2023-03-01T08:56:33;13.60;;;8.35;;
16665;SDS011;8446;50.998;6.250;2023-03-01T08:59:00;11.23;;;7.13;;
16665;SDS011;8446;50.998;6.250;2023-03-01T09:01:29;11.85;;;6.70;;
16665;SDS011;8446;50.998;6.250;2023-03-01T09:03:56;10.27;;;7.40;;
16665;SDS011;8446;50.998;6.250;2023-03-01T09:06:24;11.98;;;7.47;;
16665;SDS011;8446;50.998;6.250;2023-03-01T09:08:51;15.60;;;8.00;;
16665;SDS011;8446;50.998;6.250;2023-03-01T09:11:20;12.23;;;7.85;;
16665;SDS011;8446;50.998;6.250;2023-03-01T09:13:47;19.45;;;8.35;;
16665;SDS011;8446;50.998;6.250;2023-03-01T09:16:16;13.17;;;9.00;;
16665;SDS011;8446;50.998;6.250;2023-03-01T09:18:45;17.17;;;8.13;;
16665;SDS011;8446;50.998;6.250;2023-03-01T09:21:15;15.10;;;8.67;;
16665;SDS011;8446;50.998;6.250;2023-03-01T09:23:43;12.17;;;7.53;;
16665;SDS011;8446;50.998;6.250;2023-03-01T09:26:11;14.20;;;6.90;;
16665;SDS011;8446;50.998;6.250;2023-03-01T09:28:39;18.07;;;8.13;;
16665;SDS011;8446;50.998;6.250;2023-03-01T09:31:06;12.20;;;7.90;;
16665;SDS011;8446;50.998;6.250;2023-03-01T09:33:34;18.47;;;8.10;;
16665;SDS011;8446;50.998;6.250;2023-03-01T09:36:03;16.00;;;8.70;;
16665;SDS011;8446;50.998;6.250;2023-03-01T09:38:31;14.57;;;9.00;;
16665;SDS011;8446;50.998;6.250;2023-03-01T09:40:58;17.10;;;9.13;;
16665;SDS011;8446;50.998;6.250;2023-03-01T09:43:28;15.03;;;8.30;;
16665;SDS011;8446;50.998;6.250;2023-03-01T09:45:58;12.17;;;8.07;;
16665;SDS011;8446;50.998;6.250;2023-03-01T09:48:27;15.20;;;8.80;;
16665;SDS011;8446;50.998;6.250;2023-03-01T09:50:55;10.57;;;7.63;;
16665;SDS011;8446;50.998;6.250;2023-03-01T09:53:25;13.30;;;7.50;;
16665;SDS011;8446;50.998;6.250;2023-03-01T09:55:58;13.40;;;8.03;;
16665;SDS011;8446;50.998;6.250;2023-03-01T09:58:32;12.57;;;8.63;;
16665;SDS011;8446;50.998;6.250;2023-03-01T10:01:05;13.83;;;8.83;;
16665;SDS011;8446;50.998;6.250;2023-03-01T10:03:36;18.53;;;8.17;;
16665;SDS011;8446;50.998;6.250;2023-03-01T10:06:08;15.87;;;9.70;;
16665;SDS011;8446;50.998;6.250;2023-03-01T10:08:38;14.90;;;8.13;;
16665;SDS011;8446;50.998;6.250;2023-03-01T10:11:12;16.97;;;9.37;;
16665;SDS011;8446;50.998;6.250;2023-03-01T10:13:45;20.67;;;8.60;;
16665;SDS011;8446;50.998;6.250;2023-03-01T10:16:14;14.10;;;7.97;;
16665;SDS011;8446;50.998;6.250;2023-03-01T10:18:43;10.80;;;7.77;;
16665;SDS011;8446;50.998;6.250;2023-03-01T10:21:14;14.30;;;7.73;;
16665;SDS011;8446;50.998;6.250;2023-03-01T10:23:43;20.87;;;8.10;;
16665;SDS011;8446;50.998;6.250;2023-03-01T10:26:20;15.20;;;8.30;;
16665;SDS011;8446;50.998;6.250;2023-03-01T10:28:53;23.17;;;9.70;;
16665;SDS011;8446;50.998;6.250;2023-03-01T10:31:22;12.40;;;8.43;;
16665;SDS011;8446;50.998;6.250;2023-03-01T10:33:53;15.20;;;9.80;;
16665;SDS011;8446;50.998;6.250;2023-03-01T10:36:22;24.57;;;9.20;;
16665;SDS011;8446;50.998;6.250;2023-03-01T10:38:51;14.63;;;9.07;;
16665;SDS011;8446;50.998;6.250;2023-03-01T10:41:19;13.43;;;9.27;;
16665;SDS011;8446;50.998;6.250;2023-03-01T10:43:49;19.70;;;9.90;;
16665;SDS011;8446;50.998;6.250;2023-03-01T10:46:26;17.70;;;9.27;;
16665;SDS011;8446;50.998;6.250;2023-03-01T10:51:35;11.10;;;7.93;;
16665;SDS011;8446;50.998;6.250;2023-03-01T10:54:04;14.00;;;9.53;;
16665;SDS011;8446;50.998;6.250;2023-03-01T10:56:44;19.83;;;9.57;;
16665;SDS011;8446;50.998;6.250;2023-03-01T10:59:19;15.53;;;10.10;;
16665;SDS011;8446;50.998;6.250;2023-03-01T11:01:47;13.80;;;8.63;;
16665;SDS011;8446;50.998;6.250;2023-03-01T11:04:27;14.17;;;9.00;;
16665;SDS011;8446;50.998;6.250;2023-03-01T11:06:57;23.30;;;9.93;;
16665;SDS011;8446;50.998;6.250;2023-03-01T11:09:29;15.97;;;9.00;;
16665;SDS011;8446;50.998;6.250;2023-03-01T11:12:02;14.53;;;9.00;;
16665;SDS011;8446;50.998;6.250;2023-03-01T11:14:31;13.33;;;8.60;;
16665;SDS011;8446;50.998;6.250;2023-03-01T11:17:00;12.53;;;8.27;;
16665;SDS011;8446;50.998;6.250;2023-03-01T11:19:28;13.10;;;8.83;;
16665;SDS011;8446;50.998;6.250;2023-03-01T11:21:56;25.33;;;8.87;;
16665;SDS011;8446;50.998;6.250;2023-03-01T11:24:29;14.30;;;8.90;;
16665;SDS011;8446;50.998;6.250;2023-03-01T11:26:57;20.33;;;9.63;;
16665;SDS011;8446;50.998;6.250;2023-03-01T11:29:27;15.53;;;8.70;;
16665;SDS011;8446;50.998;6.250;2023-03-01T11:31:56;13.97;;;9.00;;
16665;SDS011;8446;50.998;6.250;2023-03-01T11:34:28;16.90;;;9.67;;
16665;SDS011;8446;50.998;6.250;2023-03-01T11:36:59;18.20;;;8.80;;
16665;SDS011;8446;50.998;6.250;2023-03-01T11:39:31;15.60;;;9.47;;
16665;SDS011;8446;50.998;6.250;2023-03-01T11:42:01;12.67;;;8.40;;
16665;SDS011;8446;50.998;6.250;2023-03-01T11:44:30;19.17;;;9.57;;
16665;SDS011;8446;50.998;6.250;2023-03-01T11:47:05;14.40;;;8.67;;
16665;SDS011;8446;50.998;6.250;2023-03-01T11:49:38;14.03;;;9.30;;
16665;SDS011;8446;50.998;6.250;2023-03-01T11:52:08;16.37;;;8.47;;
16665;SDS011;8446;50.998;6.250;2023-03-01T11:54:45;12.00;;;8.37;;
16665;SDS011;8446;50.998;6.250;2023-03-01T11:57:18;11.77;;;7.30;;
16665;SDS011;8446;50.998;6.250;2023-03-01T12:02:37;15.10;;;8.00;;
16665;SDS011;8446;50.998;6.250;2023-03-01T12:05:20;14.70;;;8.83;;
16665;SDS011;8446;50.998;6.250;2023-03-01T12:07:52;23.80;;;9.20;;
16665;SDS011;8446;50.998;6.250;2023-03-01T12:10:27;14.83;;;9.17;;
16665;SDS011;8446;50.998;6.250;2023-03-01T12:13:08;13.20;;;8.47;;
16665;SDS011;8446;50.998;6.250;2023-03-01T12:15:49;15.43;;;9.00;;
16665;SDS011;8446;50.998;6.250;2023-03-01T12:21:14;14.10;;;8.47;;
16665;SDS011;8446;50.998;6.250;2023-03-01T12:23:48;13.20;;;8.30;;
16665;SDS011;8446;50.998;6.250;2023-03-01T12:26:23;11.97;;;7.90;;
16665;SDS011;8446;50.998;6.250;2023-03-01T12:28:55;13.47;;;7.83;;
16665;SDS011;8446;50.998;6.250;2023-03-01T12:31:33;10.77;;;7.77;;
16665;SDS011;8446;50.998;6.250;2023-03-01T12:34:05;16.30;;;7.63;;
16665;SDS011;8446;50.998;6.250;2023-03-01T12:36:38;15.37;;;8.30;;
16665;SDS011;8446;50.998;6.250;2023-03-01T12:39:12;16.50;;;8.40;;
16665;SDS011;8446;50.998;6.250;2023-03-01T12:41:46;12.37;;;8.07;;
16665;SDS011;8446;50.998;6.250;2023-03-01T12:44:20;11.07;;;7.83;;
16665;SDS011;8446;50.998;6.250;2023-03-01T12:46:52;11.87;;;8.03;;
16665;SDS011;8446;50.998;6.250;2023-03-01T12:49:26;13.90;;;7.97;;
16665;SDS011;8446;50.998;6.250;2023-03-01T12:51:56;13.37;;;8.30;;
16665;SDS011;8446;50.998;6.250;2023-03-01T12:54:26;14.33;;;7.87;;
16665;SDS011;8446;50.998;6.250;2023-03-01T12:56:55;14.27;;;8.27;;
16665;SDS011;8446;50.998;6.250;2023-03-01T12:59:24;13.60;;;8.67;;
16665;SDS011;8446;50.998;6.250;2023-03-01T13:01:56;11.27;;;8.07;;
16665;SDS011;8446;50.998;6.250;2023-03-01T13:04:29;13.70;;;8.40;;
16665;SDS011;8446;50.998;6.250;2023-03-01T13:07:02;10.97;;;8.00;;
16665;SDS011;8446;50.998;6.250;2023-03-01T13:09:33;17.77;;;8.70;;
16665;SDS011;8446;50.998;6.250;2023-03-01T13:12:03;10.43;;;7.90;;
16665;SDS011;8446;50.998;6.250;2023-03-01T13:14:37;13.93;;;8.13;;
16665;SDS011;8446;50.998;6.250;2023-03-01T13:17:04;16.90;;;8.30;;
16665;SDS011;8446;50.998;6.250;2023-03-01T13:19:31;11.50;;;8.73;;
16665;SDS011;8446;50.998;6.250;2023-03-01T13:22:01;14.97;;;8.37;;
16665;SDS011;8446;50.998;6.250;2023-03-01T13:24:49;11.47;;;8.17;;
16665;SDS011;8446;50.998;6.250;2023-03-01T13:27:27;13.97;;;8.00;;
16665;SDS011;8446;50.998;6.250;2023-03-01T13:29:56;13.33;;;7.80;;
16665;SDS011;8446;50.998;6.250;2023-03-01T13:32:25;15.70;;;7.93;;
16665;SDS011;8446;50.998;6.250;2023-03-01T13:34:54;11.17;;;8.47;;
16665;SDS011;8446;50.998;6.250;2023-03-01T13:37:31;11.17;;;7.20;;
16665;SDS011;8446;50.998;6.250;2023-03-01T13:40:01;12.40;;;8.00;;
16665;SDS011;8446;50.998;6.250;2023-03-01T13:42:31;15.83;;;7.53;;
16665;SDS011;8446;50.998;6.250;2023-03-01T13:45:00;10.83;;;7.80;;
16665;SDS011;8446;50.998;6.250;2023-03-01T13:47:27;10.77;;;7.50;;
16665;SDS011;8446;50.998;6.250;2023-03-01T13:49:55;9.90;;;7.37;;
16665;SDS011;8446;50.998;6.250;2023-03-01T13:52:29;11.80;;;7.47;;
16665;SDS011;8446;50.998;6.250;2023-03-01T13:54:57;8.53;;;6.60;;
16665;SDS011;8446;50.998;6.250;2023-03-01T13:57:30;10.20;;;5.87;;
16665;SDS011;8446;50.998;6.250;2023-03-01T13:59:59;10.20;;;6.37;;
16665;SDS011;8446;50.998;6.250;2023-03-01T14:02:27;9.33;;;6.30;;
16665;SDS011;8446;50.998;6.250;2023-03-01T14:04:58;12.17;;;6.57;;
16665;SDS011;8446;50.998;6.250;2023-03-01T14:07:25;7.87;;;5.57;;
16665;SDS011;8446;50.998;6.250;2023-03-01T14:09:54;7.50;;;5.77;;
16665;SDS011;8446;50.998;6.250;2023-03-01T14:12:25;8.53;;;5.00;;
16665;SDS011;8446;50.998;6.250;2023-03-01T14:14:56;7.67;;;5.90;;
16665;SDS011;8446;50.998;6.250;2023-03-01T14:17:32;11.80;;;6.20;;
16665;SDS011;8446;50.998;6.250;2023-03-01T14:20:02;7.30;;;5.43;;
16665;SDS011;8446;50.998;6.250;2023-03-01T14:22:32;7.57;;;5.90;;
16665;SDS011;8446;50.998;6.250;2023-03-01T14:25:00;11.00;;;6.07;;
16665;SDS011;8446;50.998;6.250;2023-03-01T14:27:30;8.30;;;5.10;;
16665;SDS011;8446;50.998;6.250;2023-03-01T14:30:01;6.20;;;5.13;;
16665;SDS011;8446;50.998;6.250;2023-03-01T14:32:29;12.30;;;6.57;;
16665;SDS011;8446;50.998;6.250;2023-03-01T14:34:57;10.77;;;5.77;;
16665;SDS011;8446;50.998;6.250;2023-03-01T14:37:25;9.03;;;5.70;;
16665;SDS011;8446;50.998;6.250;2023-03-01T14:39:53;11.83;;;5.70;;
16665;SDS011;8446;50.998;6.250;2023-03-01T14:42:22;9.30;;;5.83;;
16665;SDS011;8446;50.998;6.250;2023-03-01T14:44:51;14.60;;;5.90;;
16665;SDS011;8446;50.998;6.250;2023-03-01T14:47:22;7.13;;;5.50;;
16665;SDS011;8446;50.998;6.250;2023-03-01T14:49:51;7.67;;;5.07;;
16665;SDS011;8446;50.998;6.250;2023-03-01T14:52:21;7.67;;;5.43;;
16665;SDS011;8446;50.998;6.250;2023-03-01T14:54:50;7.17;;;5.33;;
16665;SDS011;8446;50.998;6.250;2023-03-01T14:57:19;8.10;;;5.80;;
16665;SDS011;8446;50.998;6.250;2023-03-01T14:59:47;9.50;;;5.40;;
16665;SDS011;8446;50.998;6.250;2023-03-01T15:02:18;10.20;;;5.60;;
16665;SDS011;8446;50.998;6.250;2023-03-01T15:04:48;9.20;;;5.57;;
16665;SDS011;8446;50.998;6.250;2023-03-01T15:07:16;7.00;;;5.33;;
16665;SDS011;8446;50.998;6.250;2023-03-01T15:09:44;8.10;;;5.70;;
16665;SDS011;8446;50.998;6.250;2023-03-01T15:14:57;10.50;;;5.60;;